sensor_id;sensor_type;location;lat;lon;timestamp;P1;durP1;ratioP1;P2;durP2;ratioP2
16127;SDS011;8168;49.036;7.690;2022-11-23T00:00:40;3.43;;;2.20;;
16127;SDS011;8168;49.036;7.690;2022-11-23T00:03:14;10.83;;;2.23;;
16127;SDS011;8168;49.036;7.690;2022-11-23T00:05:45;3.43;;;1.93;;
16127;SDS011;8168;49.036;7.690;2022-11-23T00:08:15;5.63;;;2.00;;
16127;SDS011;8168;49.036;7.690;2022-11-23T00:10:46;4.10;;;2.10;;
16127;SDS011;8168;49.036;7.690;2022-11-23T00:13:16;5.67;;;2.30;;
16127;SDS011;8168;49.036;7.690;2022-11-23T00:15:47;6.03;;;2.33;;
16127;SDS011;8168;49.036;7.690;2022-11-23T00:18:18;2.97;;;1.93;;
16127;SDS011;8168;49.036;7.690;2022-11-23T00:20:48;3.27;;;1.90;;
16127;SDS011;8168;49.036;7.690;2022-11-23T00:23:19;3.53;;;2.00;;
16127;SDS011;8168;49.036;7.690;2022-11-23T00:25:49;3.93;;;2.20;;
16127;SDS011;8168;49.036;7.690;2022-11-23T00:28:20;3.60;;;2.07;;
16127;SDS011;8168;49.036;7.690;2022-11-23T00:30:51;4.60;;;2.33;;
16127;SDS011;8168;49.036;7.690;2022-11-23T00:33:21;3.77;;;2.17;;
16127;SDS011;8168;49.036;7.690;2022-11-23T00:36:01;5.70;;;1.83;;
16127;SDS011;8168;49.036;7.690;2022-11-23T00:38:37;7.77;;;2.10;;
16127;SDS011;8168;49.036;7.690;2022-11-23T00:41:09;4.23;;;1.87;;
16127;SDS011;8168;49.036;7.690;2022-11-23T00:43:41;5.47;;;1.83;;
16127;SDS011;8168;49.036;7.690;2022-11-23T00:48:45;3.77;;;1.90;;
16127;SDS011;8168;49.036;7.690;2022-11-23T00:51:18;2.70;;;2.03;;
16127;SDS011;8168;49.036;7.690;2022-11-23T00:53:51;5.40;;;2.10;;
16127;SDS011;8168;49.036;7.690;2022-11-23T00:56:22;4.53;;;2.03;;
16127;SDS011;8168;49.036;7.690;2022-11-23T00:58:53;3.40;;;2.10;;
16127;SDS011;8168;49.036;7.690;2022-11-23T01:01:26;4.50;;;2.03;;
16127;SDS011;8168;49.036;7.690;2022-11-23T01:04:00;4.00;;;1.53;;
16127;SDS011;8168;49.036;7.690;2022-11-23T01:06:33;5.73;;;2.00;;
16127;SDS011;8168;49.036;7.690;2022-11-23T01:09:08;6.60;;;1.80;;
16127;SDS011;8168;49.036;7.690;2022-11-23T01:11:46;5.57;;;1.80;;
16127;SDS011;8168;49.036;7.690;2022-11-23T01:14:16;3.27;;;1.63;;
16127;SDS011;8168;49.036;7.690;2022-11-23T01:16:47;3.80;;;1.33;;
16127;SDS011;8168;49.036;7.690;2022-11-23T01:19:19;3.40;;;1.40;;
16127;SDS011;8168;49.036;7.690;2022-11-23T01:21:50;7.63;;;1.53;;
16127;SDS011;8168;49.036;7.690;2022-11-23T01:24:20;6.63;;;1.70;;
16127;SDS011;8168;49.036;7.690;2022-11-23T01:26:52;6.70;;;1.90;;
16127;SDS011;8168;49.036;7.690;2022-11-23T01:29:24;6.33;;;1.80;;
16127;SDS011;8168;49.036;7.690;2022-11-23T01:31:54;1.47;;;1.13;;
16127;SDS011;8168;49.036;7.690;2022-11-23T01:34:25;4.47;;;1.37;;
16127;SDS011;8168;49.036;7.690;2022-11-23T01:36:56;3.40;;;1.30;;
16127;SDS011;8168;49.036;7.690;2022-11-23T01:39:26;6.03;;;1.80;;
16127;SDS011;8168;49.036;7.690;2022-11-23T01:41:57;6.93;;;1.70;;
16127;SDS011;8168;49.036;7.690;2022-11-23T01:44:29;2.00;;;1.23;;
16127;SDS011;8168;49.036;7.690;2022-11-23T01:47:02;3.60;;;1.57;;
16127;SDS011;8168;49.036;7.690;2022-11-23T01:49:36;2.67;;;1.57;;
16127;SDS011;8168;49.036;7.690;2022-11-23T01:52:30;2.17;;;1.40;;
16127;SDS011;8168;49.036;7.690;2022-11-23T01:55:01;3.87;;;1.50;;
16127;SDS011;8168;49.036;7.690;2022-11-23T01:57:35;4.13;;;1.20;;
16127;SDS011;8168;49.036;7.690;2022-11-23T02:00:09;7.33;;;1.70;;
16127;SDS011;8168;49.036;7.690;2022-11-23T02:02:49;6.00;;;1.57;;
16127;SDS011;8168;49.036;7.690;2022-11-23T02:05:26;4.23;;;1.37;;
16127;SDS011;8168;49.036;7.690;2022-11-23T02:08:01;3.77;;;1.40;;
16127;SDS011;8168;49.036;7.690;2022-11-23T02:10:32;4.87;;;1.40;;
16127;SDS011;8168;49.036;7.690;2022-11-23T02:13:05;8.20;;;2.10;;
16127;SDS011;8168;49.036;7.690;2022-11-23T02:15:39;3.10;;;1.30;;
16127;SDS011;8168;49.036;7.690;2022-11-23T02:18:14;3.77;;;1.43;;
16127;SDS011;8168;49.036;7.690;2022-11-23T02:20:48;6.97;;;1.70;;
16127;SDS011;8168;49.036;7.690;2022-11-23T02:25:53;4.50;;;1.53;;
16127;SDS011;8168;49.036;7.690;2022-11-23T02:28:37;5.00;;;1.30;;
16127;SDS011;8168;49.036;7.690;2022-11-23T02:31:12;4.53;;;1.73;;
16127;SDS011;8168;49.036;7.690;2022-11-23T02:33:43;4.20;;;1.60;;
16127;SDS011;8168;49.036;7.690;2022-11-23T02:39:46;5.63;;;1.67;;
16127;SDS011;8168;49.036;7.690;2022-11-23T02:42:17;7.90;;;2.20;;
16127;SDS011;8168;49.036;7.690;2022-11-23T02:47:44;3.90;;;1.43;;
16127;SDS011;8168;49.036;7.690;2022-11-23T02:50:15;5.90;;;1.93;;
16127;SDS011;8168;49.036;7.690;2022-11-23T02:52:46;4.20;;;1.60;;
16127;SDS011;8168;49.036;7.690;2022-11-23T02:55:16;8.13;;;1.63;;
16127;SDS011;8168;49.036;7.690;2022-11-23T02:57:47;5.23;;;1.57;;
16127;SDS011;8168;49.036;7.690;2022-11-23T03:00:18;4.40;;;1.80;;
16127;SDS011;8168;49.036;7.690;2022-11-23T03:02:49;4.17;;;1.90;;
16127;SDS011;8168;49.036;7.690;2022-11-23T03:05:19;4.70;;;1.63;;
16127;SDS011;8168;49.036;7.690;2022-11-23T03:07:50;5.47;;;1.80;;
16127;SDS011;8168;49.036;7.690;2022-11-23T03:10:21;4.97;;;1.67;;
16127;SDS011;8168;49.036;7.690;2022-11-23T03:12:54;5.40;;;1.60;;
16127;SDS011;8168;49.036;7.690;2022-11-23T03:15:25;3.57;;;1.53;;
16127;SDS011;8168;49.036;7.690;2022-11-23T03:17:57;4.90;;;1.53;;
16127;SDS011;8168;49.036;7.690;2022-11-23T03:20:28;4.90;;;2.13;;
16127;SDS011;8168;49.036;7.690;2022-11-23T03:22:58;4.10;;;1.40;;
16127;SDS011;8168;49.036;7.690;2022-11-23T03:25:29;5.63;;;2.00;;
16127;SDS011;8168;49.036;7.690;2022-11-23T03:27:59;5.37;;;1.97;;
16127;SDS011;8168;49.036;7.690;2022-11-23T03:30:30;5.50;;;1.97;;
16127;SDS011;8168;49.036;7.690;2022-11-23T03:33:01;5.57;;;2.03;;
16127;SDS011;8168;49.036;7.690;2022-11-23T03:35:31;3.07;;;1.60;;
16127;SDS011;8168;49.036;7.690;2022-11-23T03:38:02;4.67;;;1.67;;
16127;SDS011;8168;49.036;7.690;2022-11-23T03:40:33;10.07;;;1.73;;
16127;SDS011;8168;49.036;7.690;2022-11-23T03:43:03;5.53;;;1.60;;
16127;SDS011;8168;49.036;7.690;2022-11-23T03:45:34;3.33;;;1.73;;
16127;SDS011;8168;49.036;7.690;2022-11-23T03:48:05;3.53;;;1.63;;
16127;SDS011;8168;49.036;7.690;2022-11-23T03:50:36;3.43;;;1.57;;
16127;SDS011;8168;49.036;7.690;2022-11-23T03:53:06;3.20;;;1.40;;
16127;SDS011;8168;49.036;7.690;2022-11-23T03:55:37;4.77;;;1.67;;
16127;SDS011;8168;49.036;7.690;2022-11-23T03:58:08;4.80;;;1.93;;
16127;SDS011;8168;49.036;7.690;2022-11-23T04:00:38;4.43;;;1.20;;
16127;SDS011;8168;49.036;7.690;2022-11-23T04:03:09;4.97;;;1.60;;
16127;SDS011;8168;49.036;7.690;2022-11-23T04:05:40;5.37;;;1.77;;
16127;SDS011;8168;49.036;7.690;2022-11-23T04:08:10;3.87;;;1.33;;
16127;SDS011;8168;49.036;7.690;2022-11-23T04:10:41;8.00;;;1.67;;
16127;SDS011;8168;49.036;7.690;2022-11-23T04:13:12;6.20;;;1.50;;
16127;SDS011;8168;49.036;7.690;2022-11-23T04:15:42;3.50;;;1.27;;
16127;SDS011;8168;49.036;7.690;2022-11-23T04:18:13;4.57;;;1.77;;
16127;SDS011;8168;49.036;7.690;2022-11-23T04:20:44;4.43;;;1.70;;
16127;SDS011;8168;49.036;7.690;2022-11-23T04:23:14;3.93;;;1.73;;
16127;SDS011;8168;49.036;7.690;2022-11-23T04:25:45;4.50;;;1.80;;
16127;SDS011;8168;49.036;7.690;2022-11-23T04:28:15;7.23;;;1.70;;
16127;SDS011;8168;49.036;7.690;2022-11-23T04:30:46;2.17;;;1.33;;
16127;SDS011;8168;49.036;7.690;2022-11-23T04:33:17;3.53;;;1.60;;
16127;SDS011;8168;49.036;7.690;2022-11-23T04:35:47;2.43;;;1.70;;
16127;SDS011;8168;49.036;7.690;2022-11-23T04:38:18;4.50;;;1.90;;
16127;SDS011;8168;49.036;7.690;2022-11-23T04:40:49;6.30;;;1.67;;
16127;SDS011;8168;49.036;7.690;2022-11-23T04:43:19;2.80;;;1.47;;
16127;SDS011;8168;49.036;7.690;2022-11-23T04:45:50;5.37;;;1.70;;
16127;SDS011;8168;49.036;7.690;2022-11-23T04:48:21;4.10;;;1.67;;
16127;SDS011;8168;49.036;7.690;2022-11-23T04:50:51;2.43;;;1.33;;
16127;SDS011;8168;49.036;7.690;2022-11-23T04:53:22;4.00;;;1.73;;
16127;SDS011;8168;49.036;7.690;2022-11-23T04:55:52;6.20;;;1.60;;
16127;SDS011;8168;49.036;7.690;2022-11-23T04:58:23;2.27;;;1.60;;
16127;SDS011;8168;49.036;7.690;2022-11-23T05:00:54;3.27;;;1.60;;
16127;SDS011;8168;49.036;7.690;2022-11-23T05:03:26;7.17;;;1.80;;
16127;SDS011;8168;49.036;7.690;2022-11-23T05:05:57;9.37;;;2.30;;
16127;SDS011;8168;49.036;7.690;2022-11-23T05:08:28;3.20;;;1.40;;
16127;SDS011;8168;49.036;7.690;2022-11-23T05:10:59;7.80;;;1.93;;
16127;SDS011;8168;49.036;7.690;2022-11-23T05:13:29;5.33;;;1.83;;
16127;SDS011;8168;49.036;7.690;2022-11-23T05:16:00;10.77;;;1.80;;
16127;SDS011;8168;49.036;7.690;2022-11-23T05:18:31;4.70;;;1.73;;
16127;SDS011;8168;49.036;7.690;2022-11-23T05:21:01;2.33;;;1.10;;
16127;SDS011;8168;49.036;7.690;2022-11-23T05:23:32;8.13;;;1.83;;
16127;SDS011;8168;49.036;7.690;2022-11-23T05:26:03;6.03;;;1.40;;
16127;SDS011;8168;49.036;7.690;2022-11-23T05:28:33;3.60;;;1.40;;
16127;SDS011;8168;49.036;7.690;2022-11-23T05:31:04;3.27;;;1.43;;
16127;SDS011;8168;49.036;7.690;2022-11-23T05:33:35;2.30;;;1.67;;
16127;SDS011;8168;49.036;7.690;2022-11-23T05:36:06;4.83;;;1.40;;
16127;SDS011;8168;49.036;7.690;2022-11-23T05:38:36;1.60;;;1.27;;
16127;SDS011;8168;49.036;7.690;2022-11-23T05:41:07;4.07;;;1.50;;
16127;SDS011;8168;49.036;7.690;2022-11-23T05:43:38;8.10;;;1.83;;
16127;SDS011;8168;49.036;7.690;2022-11-23T05:46:08;2.93;;;1.40;;
16127;SDS011;8168;49.036;7.690;2022-11-23T05:48:39;2.57;;;1.20;;
16127;SDS011;8168;49.036;7.690;2022-11-23T05:51:10;7.73;;;1.67;;
16127;SDS011;8168;49.036;7.690;2022-11-23T05:53:40;5.67;;;1.90;;
16127;SDS011;8168;49.036;7.690;2022-11-23T05:56:11;2.57;;;1.77;;
16127;SDS011;8168;49.036;7.690;2022-11-23T05:58:41;4.50;;;1.77;;
16127;SDS011;8168;49.036;7.690;2022-11-23T06:01:12;5.00;;;1.90;;
16127;SDS011;8168;49.036;7.690;2022-11-23T06:03:43;1.87;;;1.40;;
16127;SDS011;8168;49.036;7.690;2022-11-23T06:06:13;8.73;;;2.20;;
16127;SDS011;8168;49.036;7.690;2022-11-23T06:08:44;4.73;;;1.57;;
16127;SDS011;8168;49.036;7.690;2022-11-23T06:11:14;3.53;;;1.60;;
16127;SDS011;8168;49.036;7.690;2022-11-23T06:13:46;4.07;;;1.60;;
16127;SDS011;8168;49.036;7.690;2022-11-23T06:16:17;4.83;;;1.40;;
16127;SDS011;8168;49.036;7.690;2022-11-23T06:18:48;4.50;;;1.60;;
16127;SDS011;8168;49.036;7.690;2022-11-23T06:21:18;6.93;;;2.83;;
16127;SDS011;8168;49.036;7.690;2022-11-23T06:23:49;5.57;;;1.70;;
16127;SDS011;8168;49.036;7.690;2022-11-23T06:26:20;3.27;;;1.43;;
16127;SDS011;8168;49.036;7.690;2022-11-23T06:28:50;4.27;;;1.90;;
16127;SDS011;8168;49.036;7.690;2022-11-23T06:31:21;5.03;;;1.67;;
16127;SDS011;8168;49.036;7.690;2022-11-23T06:33:51;6.10;;;2.23;;
16127;SDS011;8168;49.036;7.690;2022-11-23T06:36:22;5.20;;;2.13;;
16127;SDS011;8168;49.036;7.690;2022-11-23T06:38:53;6.20;;;1.63;;
16127;SDS011;8168;49.036;7.690;2022-11-23T06:41:24;3.50;;;1.90;;
16127;SDS011;8168;49.036;7.690;2022-11-23T06:43:55;4.10;;;1.57;;
16127;SDS011;8168;49.036;7.690;2022-11-23T06:46:25;3.57;;;1.63;;
16127;SDS011;8168;49.036;7.690;2022-11-23T06:48:56;4.63;;;1.80;;
16127;SDS011;8168;49.036;7.690;2022-11-23T06:51:26;2.57;;;1.63;;
16127;SDS011;8168;49.036;7.690;2022-11-23T06:53:57;4.17;;;1.93;;
16127;SDS011;8168;49.036;7.690;2022-11-23T06:56:29;4.43;;;1.70;;
16127;SDS011;8168;49.036;7.690;2022-11-23T06:59:00;3.00;;;1.80;;
16127;SDS011;8168;49.036;7.690;2022-11-23T07:01:31;2.10;;;1.57;;
16127;SDS011;8168;49.036;7.690;2022-11-23T07:04:01;4.43;;;2.23;;
16127;SDS011;8168;49.036;7.690;2022-11-23T07:06:32;3.40;;;1.63;;
16127;SDS011;8168;49.036;7.690;2022-11-23T07:09:03;5.37;;;2.00;;
16127;SDS011;8168;49.036;7.690;2022-11-23T07:11:33;1.67;;;1.50;;
16127;SDS011;8168;49.036;7.690;2022-11-23T07:14:04;2.27;;;1.40;;
16127;SDS011;8168;49.036;7.690;2022-11-23T07:16:35;2.87;;;1.60;;
16127;SDS011;8168;49.036;7.690;2022-11-23T07:19:05;3.00;;;1.70;;
16127;SDS011;8168;49.036;7.690;2022-11-23T07:21:36;3.03;;;1.70;;
16127;SDS011;8168;49.036;7.690;2022-11-23T07:24:07;4.10;;;1.80;;
16127;SDS011;8168;49.036;7.690;2022-11-23T07:26:37;10.50;;;1.93;;
16127;SDS011;8168;49.036;7.690;2022-11-23T07:29:08;1.87;;;1.47;;
16127;SDS011;8168;49.036;7.690;2022-11-23T07:31:39;6.30;;;2.03;;
16127;SDS011;8168;49.036;7.690;2022-11-23T07:34:10;6.60;;;1.70;;
16127;SDS011;8168;49.036;7.690;2022-11-23T07:36:40;4.77;;;2.50;;
16127;SDS011;8168;49.036;7.690;2022-11-23T07:39:11;3.53;;;2.17;;
16127;SDS011;8168;49.036;7.690;2022-11-23T07:41:41;2.83;;;1.70;;
16127;SDS011;8168;49.036;7.690;2022-11-23T07:44:12;5.33;;;1.80;;
16127;SDS011;8168;49.036;7.690;2022-11-23T07:46:43;2.70;;;1.60;;
16127;SDS011;8168;49.036;7.690;2022-11-23T07:49:13;2.70;;;1.40;;
16127;SDS011;8168;49.036;7.690;2022-11-23T07:51:44;4.63;;;1.53;;
16127;SDS011;8168;49.036;7.690;2022-11-23T07:54:14;3.90;;;1.70;;
16127;SDS011;8168;49.036;7.690;2022-11-23T07:56:46;2.00;;;1.47;;
16127;SDS011;8168;49.036;7.690;2022-11-23T07:59:17;2.50;;;1.50;;
16127;SDS011;8168;49.036;7.690;2022-11-23T08:01:47;2.67;;;1.33;;
16127;SDS011;8168;49.036;7.690;2022-11-23T08:04:18;2.80;;;1.60;;
16127;SDS011;8168;49.036;7.690;2022-11-23T08:06:49;3.30;;;1.30;;
16127;SDS011;8168;49.036;7.690;2022-11-23T08:09:19;2.37;;;1.60;;
16127;SDS011;8168;49.036;7.690;2022-11-23T08:11:50;2.13;;;1.43;;
16127;SDS011;8168;49.036;7.690;2022-11-23T08:14:20;2.40;;;1.63;;
16127;SDS011;8168;49.036;7.690;2022-11-23T08:16:52;3.43;;;1.43;;
16127;SDS011;8168;49.036;7.690;2022-11-23T08:19:23;5.17;;;3.73;;
16127;SDS011;8168;49.036;7.690;2022-11-23T08:21:54;5.30;;;3.20;;
16127;SDS011;8168;49.036;7.690;2022-11-23T08:24:24;3.30;;;2.50;;
16127;SDS011;8168;49.036;7.690;2022-11-23T08:26:55;4.40;;;2.20;;
16127;SDS011;8168;49.036;7.690;2022-11-23T08:29:25;6.77;;;2.40;;
16127;SDS011;8168;49.036;7.690;2022-11-23T08:31:57;4.37;;;2.10;;
16127;SDS011;8168;49.036;7.690;2022-11-23T08:34:27;6.10;;;2.77;;
16127;SDS011;8168;49.036;7.690;2022-11-23T08:36:58;10.57;;;3.07;;
16127;SDS011;8168;49.036;7.690;2022-11-23T08:39:28;6.03;;;4.03;;
16127;SDS011;8168;49.036;7.690;2022-11-23T08:41:59;4.37;;;3.03;;
16127;SDS011;8168;49.036;7.690;2022-11-23T08:44:29;8.47;;;2.80;;
16127;SDS011;8168;49.036;7.690;2022-11-23T08:47:00;5.57;;;1.93;;
16127;SDS011;8168;49.036;7.690;2022-11-23T08:49:31;4.33;;;2.17;;
16127;SDS011;8168;49.036;7.690;2022-11-23T08:52:01;6.10;;;2.60;;
16127;SDS011;8168;49.036;7.690;2022-11-23T08:54:32;4.17;;;2.00;;
16127;SDS011;8168;49.036;7.690;2022-11-23T08:57:03;3.47;;;2.10;;
16127;SDS011;8168;49.036;7.690;2022-11-23T08:59:33;4.43;;;1.97;;
16127;SDS011;8168;49.036;7.690;2022-11-23T09:02:04;7.07;;;2.57;;
16127;SDS011;8168;49.036;7.690;2022-11-23T09:04:35;5.57;;;2.07;;
16127;SDS011;8168;49.036;7.690;2022-11-23T09:07:06;6.83;;;2.30;;
16127;SDS011;8168;49.036;7.690;2022-11-23T09:09:36;10.03;;;4.20;;
16127;SDS011;8168;49.036;7.690;2022-11-23T09:12:07;3.03;;;1.60;;
16127;SDS011;8168;49.036;7.690;2022-11-23T09:14:38;4.00;;;1.90;;
16127;SDS011;8168;49.036;7.690;2022-11-23T09:17:08;6.00;;;2.67;;
16127;SDS011;8168;49.036;7.690;2022-11-23T09:19:39;5.60;;;3.00;;
16127;SDS011;8168;49.036;7.690;2022-11-23T09:22:10;4.17;;;1.77;;
16127;SDS011;8168;49.036;7.690;2022-11-23T09:24:41;3.07;;;1.60;;
16127;SDS011;8168;49.036;7.690;2022-11-23T09:27:11;5.23;;;1.50;;
16127;SDS011;8168;49.036;7.690;2022-11-23T09:29:42;5.27;;;1.67;;
16127;SDS011;8168;49.036;7.690;2022-11-23T09:32:13;4.13;;;2.13;;
16127;SDS011;8168;49.036;7.690;2022-11-23T09:34:43;2.50;;;1.53;;
16127;SDS011;8168;49.036;7.690;2022-11-23T09:37:14;7.10;;;2.03;;
16127;SDS011;8168;49.036;7.690;2022-11-23T09:39:45;4.80;;;2.20;;
16127;SDS011;8168;49.036;7.690;2022-11-23T09:45:04;4.90;;;2.03;;
16127;SDS011;8168;49.036;7.690;2022-11-23T09:53:29;1.13;;;0.90;;
16127;SDS011;8168;49.036;7.690;2022-11-23T09:56:05;3.97;;;1.70;;
16127;SDS011;8168;49.036;7.690;2022-11-23T09:58:55;7.63;;;1.80;;
16127;SDS011;8168;49.036;7.690;2022-11-23T10:01:29;3.00;;;1.67;;
16127;SDS011;8168;49.036;7.690;2022-11-23T10:04:00;2.37;;;1.50;;
16127;SDS011;8168;49.036;7.690;2022-11-23T10:06:35;3.67;;;1.60;;
16127;SDS011;8168;49.036;7.690;2022-11-23T10:12:15;3.17;;;1.80;;
16127;SDS011;8168;49.036;7.690;2022-11-23T10:18:00;3.50;;;1.73;;
16127;SDS011;8168;49.036;7.690;2022-11-23T10:26:28;2.53;;;1.60;;
16127;SDS011;8168;49.036;7.690;2022-11-23T10:29:13;3.20;;;1.53;;
16127;SDS011;8168;49.036;7.690;2022-11-23T10:31:49;4.00;;;1.63;;
16127;SDS011;8168;49.036;7.690;2022-11-23T10:37:15;4.80;;;1.60;;
16127;SDS011;8168;49.036;7.690;2022-11-23T10:39:47;3.90;;;1.70;;
16127;SDS011;8168;49.036;7.690;2022-11-23T10:42:35;3.93;;;1.50;;
16127;SDS011;8168;49.036;7.690;2022-11-23T10:45:20;4.50;;;1.37;;
16127;SDS011;8168;49.036;7.690;2022-11-23T10:47:53;4.47;;;1.70;;
16127;SDS011;8168;49.036;7.690;2022-11-23T10:55:48;1.57;;;1.20;;
16127;SDS011;8168;49.036;7.690;2022-11-23T10:58:29;5.93;;;1.40;;
16127;SDS011;8168;49.036;7.690;2022-11-23T11:01:10;5.03;;;1.17;;
16127;SDS011;8168;49.036;7.690;2022-11-23T11:03:52;3.27;;;1.13;;
16127;SDS011;8168;49.036;7.690;2022-11-23T11:06:25;3.30;;;1.13;;
16127;SDS011;8168;49.036;7.690;2022-11-23T11:08:59;2.70;;;0.97;;
16127;SDS011;8168;49.036;7.690;2022-11-23T11:11:33;2.63;;;1.17;;
16127;SDS011;8168;49.036;7.690;2022-11-23T11:14:21;1.73;;;0.77;;
16127;SDS011;8168;49.036;7.690;2022-11-23T11:16:55;5.03;;;1.13;;
16127;SDS011;8168;49.036;7.690;2022-11-23T11:19:33;2.20;;;1.10;;
16127;SDS011;8168;49.036;7.690;2022-11-23T11:22:23;3.93;;;1.53;;
16127;SDS011;8168;49.036;7.690;2022-11-23T11:25:03;2.03;;;1.10;;
16127;SDS011;8168;49.036;7.690;2022-11-23T11:27:35;1.77;;;1.07;;
16127;SDS011;8168;49.036;7.690;2022-11-23T11:30:06;0.60;;;0.60;;
16127;SDS011;8168;49.036;7.690;2022-11-23T11:32:54;3.03;;;1.33;;
16127;SDS011;8168;49.036;7.690;2022-11-23T11:35:34;1.10;;;1.00;;
16127;SDS011;8168;49.036;7.690;2022-11-23T11:38:10;3.63;;;0.90;;
16127;SDS011;8168;49.036;7.690;2022-11-23T11:40:53;1.70;;;1.17;;
16127;SDS011;8168;49.036;7.690;2022-11-23T11:43:28;1.60;;;0.53;;
16127;SDS011;8168;49.036;7.690;2022-11-23T11:46:16;3.10;;;1.13;;
16127;SDS011;8168;49.036;7.690;2022-11-23T11:51:40;6.03;;;0.87;;
16127;SDS011;8168;49.036;7.690;2022-11-23T11:56:51;2.10;;;0.90;;
16127;SDS011;8168;49.036;7.690;2022-11-23T11:59:27;2.97;;;1.03;;
16127;SDS011;8168;49.036;7.690;2022-11-23T12:07:45;1.77;;;0.80;;
16127;SDS011;8168;49.036;7.690;2022-11-23T12:10:26;3.10;;;1.13;;
16127;SDS011;8168;49.036;7.690;2022-11-23T12:13:01;2.83;;;0.80;;
16127;SDS011;8168;49.036;7.690;2022-11-23T12:15:54;5.40;;;1.40;;
16127;SDS011;8168;49.036;7.690;2022-11-23T12:30:16;1.40;;;0.80;;
16127;SDS011;8168;49.036;7.690;2022-11-23T12:42:37;1.50;;;0.70;;
16127;SDS011;8168;49.036;7.690;2022-11-23T12:45:02;1.07;;;0.67;;
16127;SDS011;8168;49.036;7.690;2022-11-23T12:50:44;0.60;;;0.50;;
16127;SDS011;8168;49.036;7.690;2022-11-23T12:53:32;5.27;;;0.83;;
16127;SDS011;8168;49.036;7.690;2022-11-23T12:59:00;1.07;;;0.73;;
16127;SDS011;8168;49.036;7.690;2022-11-23T13:01:33;2.07;;;0.73;;
16127;SDS011;8168;49.036;7.690;2022-11-23T13:13:22;2.30;;;1.20;;
16127;SDS011;8168;49.036;7.690;2022-11-23T13:16:09;2.30;;;0.87;;
16127;SDS011;8168;49.036;7.690;2022-11-23T13:19:02;3.47;;;0.80;;
16127;SDS011;8168;49.036;7.690;2022-11-23T13:21:45;1.23;;;0.70;;
16127;SDS011;8168;49.036;7.690;2022-11-23T13:24:27;2.30;;;0.87;;
16127;SDS011;8168;49.036;7.690;2022-11-23T13:29:45;3.70;;;1.07;;
16127;SDS011;8168;49.036;7.690;2022-11-23T13:40:44;2.63;;;1.13;;
16127;SDS011;8168;49.036;7.690;2022-11-23T13:43:31;1.60;;;1.40;;
16127;SDS011;8168;49.036;7.690;2022-11-23T13:46:23;3.03;;;1.07;;
16127;SDS011;8168;49.036;7.690;2022-11-23T13:48:58;4.13;;;0.93;;
16127;SDS011;8168;49.036;7.690;2022-11-23T13:51:30;2.43;;;0.87;;
16127;SDS011;8168;49.036;7.690;2022-11-23T13:56:36;1.87;;;1.30;;
16127;SDS011;8168;49.036;7.690;2022-11-23T14:04:43;3.47;;;1.50;;
16127;SDS011;8168;49.036;7.690;2022-11-23T14:07:39;2.23;;;1.27;;
16127;SDS011;8168;49.036;7.690;2022-11-23T14:10:16;1.30;;;1.10;;
16127;SDS011;8168;49.036;7.690;2022-11-23T14:15:36;2.10;;;0.83;;
16127;SDS011;8168;49.036;7.690;2022-11-23T14:18:33;1.40;;;0.83;;
16127;SDS011;8168;49.036;7.690;2022-11-23T14:21:29;0.97;;;0.77;;
16127;SDS011;8168;49.036;7.690;2022-11-23T14:24:28;2.67;;;1.20;;
16127;SDS011;8168;49.036;7.690;2022-11-23T14:30:11;3.30;;;1.27;;
16127;SDS011;8168;49.036;7.690;2022-11-23T14:41:16;2.10;;;1.27;;
16127;SDS011;8168;49.036;7.690;2022-11-23T14:43:50;3.23;;;1.17;;
16127;SDS011;8168;49.036;7.690;2022-11-23T14:46:23;2.93;;;1.10;;
16127;SDS011;8168;49.036;7.690;2022-11-23T14:49:11;4.50;;;1.37;;
16127;SDS011;8168;49.036;7.690;2022-11-23T14:51:44;2.47;;;1.60;;
16127;SDS011;8168;49.036;7.690;2022-11-23T14:54:14;5.17;;;1.20;;
16127;SDS011;8168;49.036;7.690;2022-11-23T14:56:46;4.13;;;1.50;;
16127;SDS011;8168;49.036;7.690;2022-11-23T14:59:21;1.63;;;1.30;;
16127;SDS011;8168;49.036;7.690;2022-11-23T15:01:55;3.33;;;1.27;;
16127;SDS011;8168;49.036;7.690;2022-11-23T15:04:31;1.93;;;1.07;;
16127;SDS011;8168;49.036;7.690;2022-11-23T15:12:39;4.63;;;3.10;;
16127;SDS011;8168;49.036;7.690;2022-11-23T15:18:08;2.40;;;1.17;;
16127;SDS011;8168;49.036;7.690;2022-11-23T15:20:42;1.57;;;1.23;;
16127;SDS011;8168;49.036;7.690;2022-11-23T15:23:23;1.47;;;0.93;;
16127;SDS011;8168;49.036;7.690;2022-11-23T15:25:59;2.53;;;1.00;;
16127;SDS011;8168;49.036;7.690;2022-11-23T15:28:34;1.43;;;0.93;;
16127;SDS011;8168;49.036;7.690;2022-11-23T15:34:12;3.27;;;1.40;;
16127;SDS011;8168;49.036;7.690;2022-11-23T15:36:46;1.63;;;1.00;;
16127;SDS011;8168;49.036;7.690;2022-11-23T15:39:21;3.57;;;1.20;;
16127;SDS011;8168;49.036;7.690;2022-11-23T15:41:53;4.80;;;1.50;;
16127;SDS011;8168;49.036;7.690;2022-11-23T15:44:25;2.73;;;1.40;;
16127;SDS011;8168;49.036;7.690;2022-11-23T15:47:03;1.57;;;1.20;;
16127;SDS011;8168;49.036;7.690;2022-11-23T15:49:36;2.63;;;1.00;;
16127;SDS011;8168;49.036;7.690;2022-11-23T15:52:15;4.73;;;1.63;;
16127;SDS011;8168;49.036;7.690;2022-11-23T15:54:47;5.00;;;1.20;;
16127;SDS011;8168;49.036;7.690;2022-11-23T15:57:19;2.43;;;1.07;;
16127;SDS011;8168;49.036;7.690;2022-11-23T15:59:56;1.57;;;1.20;;
16127;SDS011;8168;49.036;7.690;2022-11-23T16:02:29;3.07;;;1.30;;
16127;SDS011;8168;49.036;7.690;2022-11-23T16:05:13;1.87;;;1.10;;
16127;SDS011;8168;49.036;7.690;2022-11-23T16:10:39;3.07;;;1.20;;
16127;SDS011;8168;49.036;7.690;2022-11-23T16:13:33;5.90;;;2.03;;
16127;SDS011;8168;49.036;7.690;2022-11-23T16:16:07;5.33;;;1.80;;
16127;SDS011;8168;49.036;7.690;2022-11-23T16:18:48;3.40;;;1.77;;
16127;SDS011;8168;49.036;7.690;2022-11-23T16:21:26;4.60;;;3.40;;
16127;SDS011;8168;49.036;7.690;2022-11-23T16:23:57;3.67;;;2.70;;
16127;SDS011;8168;49.036;7.690;2022-11-23T16:26:29;6.33;;;3.70;;
16127;SDS011;8168;49.036;7.690;2022-11-23T16:29:01;3.53;;;2.70;;
16127;SDS011;8168;49.036;7.690;2022-11-23T16:31:39;3.47;;;2.53;;
16127;SDS011;8168;49.036;7.690;2022-11-23T16:34:12;2.50;;;2.30;;
16127;SDS011;8168;49.036;7.690;2022-11-23T16:36:46;2.57;;;1.67;;
16127;SDS011;8168;49.036;7.690;2022-11-23T16:39:17;3.43;;;2.30;;
16127;SDS011;8168;49.036;7.690;2022-11-23T16:41:48;4.40;;;2.23;;
16127;SDS011;8168;49.036;7.690;2022-11-23T16:44:20;5.37;;;1.67;;
16127;SDS011;8168;49.036;7.690;2022-11-23T16:46:51;3.23;;;2.07;;
16127;SDS011;8168;49.036;7.690;2022-11-23T16:49:22;2.70;;;1.50;;
16127;SDS011;8168;49.036;7.690;2022-11-23T16:51:53;4.67;;;1.50;;
16127;SDS011;8168;49.036;7.690;2022-11-23T16:54:24;2.40;;;1.70;;
16127;SDS011;8168;49.036;7.690;2022-11-23T16:56:54;2.43;;;1.70;;
16127;SDS011;8168;49.036;7.690;2022-11-23T16:59:25;2.47;;;1.90;;
16127;SDS011;8168;49.036;7.690;2022-11-23T17:01:55;2.77;;;1.97;;
16127;SDS011;8168;49.036;7.690;2022-11-23T17:04:26;3.23;;;2.00;;
16127;SDS011;8168;49.036;7.690;2022-11-23T17:06:57;2.53;;;1.70;;
16127;SDS011;8168;49.036;7.690;2022-11-23T17:09:28;4.17;;;1.97;;
16127;SDS011;8168;49.036;7.690;2022-11-23T17:11:58;5.23;;;2.00;;
16127;SDS011;8168;49.036;7.690;2022-11-23T17:14:29;3.40;;;2.00;;
16127;SDS011;8168;49.036;7.690;2022-11-23T17:17:08;2.50;;;2.00;;
16127;SDS011;8168;49.036;7.690;2022-11-23T17:19:50;3.87;;;2.73;;
16127;SDS011;8168;49.036;7.690;2022-11-23T17:22:21;3.70;;;2.23;;
16127;SDS011;8168;49.036;7.690;2022-11-23T17:24:51;3.50;;;2.60;;
16127;SDS011;8168;49.036;7.690;2022-11-23T17:27:23;3.00;;;2.10;;
16127;SDS011;8168;49.036;7.690;2022-11-23T17:29:58;2.53;;;1.77;;
16127;SDS011;8168;49.036;7.690;2022-11-23T17:32:30;4.50;;;2.40;;
16127;SDS011;8168;49.036;7.690;2022-11-23T17:35:01;5.17;;;3.27;;
16127;SDS011;8168;49.036;7.690;2022-11-23T17:37:32;5.40;;;2.63;;
16127;SDS011;8168;49.036;7.690;2022-11-23T17:40:04;2.90;;;2.57;;
16127;SDS011;8168;49.036;7.690;2022-11-23T17:42:35;3.00;;;2.20;;
16127;SDS011;8168;49.036;7.690;2022-11-23T17:45:05;2.07;;;1.87;;
16127;SDS011;8168;49.036;7.690;2022-11-23T17:47:36;4.13;;;2.30;;
16127;SDS011;8168;49.036;7.690;2022-11-23T17:50:09;4.20;;;2.43;;
16127;SDS011;8168;49.036;7.690;2022-11-23T17:52:46;2.13;;;1.93;;